createdAt,value
2022-09-07T00:00:52.517Z,21.60
2022-09-07T00:03:20.417Z,21.60
2022-09-07T00:05:48.622Z,21.50
2022-09-07T00:08:16.899Z,21.50
2022-09-07T00:10:54.517Z,21.50
2022-09-07T00:13:22.659Z,21.40
2022-09-07T00:15:50.164Z,21.40
2022-09-07T00:18:17.621Z,21.40
2022-09-07T00:20:45.177Z,21.30
2022-09-07T00:23:12.727Z,21.30
2022-09-07T00:25:40.497Z,21.20
2022-09-07T00:28:08.446Z,21.20
2022-09-07T00:30:41.172Z,21.10
2022-09-07T00:33:08.672Z,21.10
2022-09-07T00:35:42.513Z,21.10
2022-09-07T00:38:10.124Z,21.00
2022-09-07T00:40:37.730Z,21.00
2022-09-07T00:43:05.396Z,20.90
2022-09-07T00:45:32.791Z,20.90
2022-09-07T00:48:09.763Z,20.90
2022-09-07T00:50:43.838Z,20.80
2022-09-07T00:53:15.579Z,20.80
2022-09-07T00:55:44.655Z,20.80
2022-09-07T00:58:12.334Z,20.70
2022-09-07T01:00:44.859Z,20.70
2022-09-07T01:03:12.550Z,20.70
2022-09-07T01:05:45.748Z,20.70
2022-09-07T01:08:13.675Z,20.60
2022-09-07T01:10:41.274Z,20.60
2022-09-07T01:13:08.754Z,20.60
2022-09-07T01:16:00.057Z,20.60
2022-09-07T01:18:30.326Z,20.60
2022-09-07T01:21:16.717Z,20.50
2022-09-07T01:23:53.026Z,20.50
2022-09-07T01:26:20.325Z,20.50
2022-09-07T01:28:49.784Z,20.50
2022-09-07T01:31:37.418Z,20.50
2022-09-07T01:34:11.045Z,20.50
2022-09-07T01:36:45.764Z,20.50
2022-09-07T01:39:13.108Z,20.40
2022-09-07T01:41:47.841Z,20.50
2022-09-07T01:44:20.972Z,20.40
2022-09-07T01:46:48.531Z,20.50
2022-09-07T01:49:19.570Z,20.40
2022-09-07T01:51:48.948Z,20.50
2022-09-07T01:54:19.565Z,20.50
2022-09-07T01:56:48.494Z,20.50
2022-09-07T01:59:24.951Z,20.50
2022-09-07T02:01:54.959Z,20.50
2022-09-07T02:04:25.790Z,20.50
2022-09-07T02:06:53.111Z,20.50
2022-09-07T02:09:20.509Z,20.50
2022-09-07T02:11:49.622Z,20.50
2022-09-07T02:14:16.990Z,20.50
2022-09-07T02:17:07.345Z,20.40
2022-09-07T02:19:41.213Z,20.40
2022-09-07T02:22:14.260Z,20.40
2022-09-07T02:24:43.216Z,20.30
2022-09-07T02:27:33.751Z,20.20
2022-09-07T02:30:01.130Z,20.20
2022-09-07T02:32:28.598Z,20.20
2022-09-07T02:34:55.939Z,20.10
2022-09-07T02:37:23.992Z,20.00
2022-09-07T02:39:51.465Z,20.00
2022-09-07T02:42:19.003Z,19.90
2022-09-07T02:44:47.005Z,19.90
2022-09-07T02:47:15.163Z,19.80
2022-09-07T02:49:48.498Z,19.80
2022-09-07T02:52:51.242Z,19.70
2022-09-07T02:55:33.303Z,19.70
2022-09-07T02:58:04.696Z,19.60
2022-09-07T03:00:34.281Z,19.60
2022-09-07T03:03:20.498Z,19.50
2022-09-07T03:05:58.733Z,19.50
2022-09-07T03:08:31.855Z,19.50
2022-09-07T03:10:59.643Z,19.50
2022-09-07T03:13:28.860Z,19.50
2022-09-07T03:15:56.633Z,19.40
2022-09-07T03:18:24.548Z,19.40
2022-09-07T03:20:52.088Z,19.40
2022-09-07T03:23:19.509Z,19.30
2022-09-07T03:25:49.609Z,19.40
2022-09-07T03:28:17.024Z,19.30
2022-09-07T03:30:46.613Z,19.30
2022-09-07T03:33:16.147Z,19.30
2022-09-07T03:35:44.301Z,19.40
2022-09-07T03:38:11.658Z,19.40
2022-09-07T03:40:39.383Z,19.40
2022-09-07T03:43:06.785Z,19.40
2022-09-07T03:45:34.271Z,19.40
2022-09-07T03:48:01.668Z,19.50
2022-09-07T03:50:29.624Z,19.50
2022-09-07T03:52:57.055Z,19.50
2022-09-07T03:55:24.407Z,19.50
2022-09-07T03:57:51.759Z,19.50
2022-09-07T04:00:19.255Z,19.50
2022-09-07T04:02:46.654Z,19.50
2022-09-07T04:05:14.209Z,19.50
2022-09-07T04:07:41.573Z,19.50
2022-09-07T04:10:09.172Z,19.50
2022-09-07T04:12:36.569Z,19.50
2022-09-07T04:15:04.098Z,19.60
2022-09-07T04:17:31.470Z,19.60
2022-09-07T04:19:58.851Z,19.60
2022-09-07T04:22:26.245Z,19.60
2022-09-07T04:24:53.584Z,19.60
2022-09-07T04:27:20.887Z,19.60
2022-09-07T04:29:48.307Z,19.60
2022-09-07T04:32:16.132Z,19.60
2022-09-07T04:34:43.552Z,19.60
2022-09-07T04:37:10.844Z,19.60
2022-09-07T04:39:38.264Z,19.60
2022-09-07T04:42:05.771Z,19.60
2022-09-07T04:44:33.192Z,19.60
2022-09-07T04:47:00.515Z,19.60
2022-09-07T04:49:27.972Z,19.70
2022-09-07T04:51:55.355Z,19.70
2022-09-07T04:54:22.766Z,19.70
2022-09-07T04:56:50.118Z,19.70
2022-09-07T04:59:17.448Z,19.70
2022-09-07T05:01:44.949Z,19.70
2022-09-07T05:04:12.412Z,19.70
2022-09-07T05:06:39.804Z,19.80
2022-09-07T05:09:07.208Z,19.80
2022-09-07T05:11:34.624Z,19.80
2022-09-07T05:14:02.595Z,19.80
2022-09-07T05:16:30.583Z,19.80
2022-09-07T05:18:59.277Z,19.90
2022-09-07T05:21:28.091Z,19.90
2022-09-07T05:23:56.294Z,19.90
2022-09-07T05:26:24.979Z,19.90
2022-09-07T05:28:53.030Z,19.90
2022-09-07T05:31:22.409Z,19.90
2022-09-07T05:36:41.233Z,20.00
2022-09-07T05:39:09.076Z,20.00
2022-09-07T05:41:36.837Z,20.00
2022-09-07T05:46:52.852Z,20.00
2022-09-07T05:49:20.231Z,20.00
2022-09-07T05:51:48.616Z,20.00
2022-09-07T05:54:16.002Z,20.10
2022-09-07T05:56:44.053Z,20.10
2022-09-07T05:59:11.406Z,20.10
2022-09-07T06:01:39.066Z,20.10
2022-09-07T06:04:06.624Z,20.10
2022-09-07T06:06:36.912Z,20.10
2022-09-07T06:09:04.241Z,20.10
2022-09-07T06:11:31.678Z,20.20
2022-09-07T06:13:58.977Z,20.20
2022-09-07T06:16:26.516Z,20.20
2022-09-07T06:18:54.184Z,20.20
2022-09-07T06:21:22.873Z,20.30
2022-09-07T06:23:50.884Z,20.30
2022-09-07T06:26:19.650Z,20.30
2022-09-07T06:28:50.190Z,20.30
2022-09-07T06:31:20.255Z,20.30
2022-09-07T06:33:48.427Z,20.30
2022-09-07T06:36:16.957Z,20.30
2022-09-07T06:51:28.892Z,20.30
2022-09-07T06:56:44.573Z,20.20
2022-09-07T06:59:11.954Z,20.10
2022-09-07T07:01:39.340Z,20.10
2022-09-07T07:04:06.878Z,20.10
2022-09-07T07:06:37.547Z,20.10
2022-09-07T07:09:05.775Z,20.10
2022-09-07T07:11:33.600Z,20.10
2022-09-07T07:14:01.024Z,20.10
2022-09-07T07:16:36.375Z,20.10
2022-09-07T07:19:10.743Z,20.10
2022-09-07T07:22:07.714Z,20.10
2022-09-07T07:24:31.693Z,20.10
2022-09-07T07:26:58.994Z,20.10
2022-09-07T07:47:58.444Z,19.80
2022-09-07T07:50:33.705Z,19.90
2022-09-07T07:55:49.163Z,20.00
2022-09-07T07:58:16.517Z,20.00
2022-09-07T08:00:54.256Z,20.10
2022-09-07T08:03:23.434Z,20.10
2022-09-07T08:05:51.131Z,20.20
2022-09-07T08:08:18.636Z,20.20
2022-09-07T08:10:47.527Z,20.30
2022-09-07T08:13:15.159Z,20.30
2022-09-07T08:15:54.195Z,20.30
2022-09-07T08:18:34.230Z,20.40
2022-09-07T08:21:05.994Z,20.40
2022-09-07T08:23:36.188Z,20.40
2022-09-07T08:26:03.803Z,20.40
2022-09-07T08:28:32.708Z,20.50
2022-09-07T08:31:00.320Z,20.50
2022-09-07T08:33:27.691Z,20.50
2022-09-07T08:35:59.511Z,20.50
2022-09-07T08:38:27.419Z,20.60
2022-09-07T08:40:54.835Z,20.60
2022-09-07T08:43:49.315Z,20.60
2022-09-07T08:46:29.217Z,20.70
2022-09-07T08:48:58.187Z,20.70
2022-09-07T08:51:41.567Z,20.80
2022-09-07T08:54:11.495Z,20.80
2022-09-07T08:57:20.618Z,20.80
2022-09-07T08:59:34.379Z,20.80
2022-09-07T09:07:50.743Z,21.00
2022-09-07T09:10:31.057Z,21.00
2022-09-07T09:13:03.669Z,21.00
2022-09-07T09:15:34.616Z,21.00
2022-09-07T09:18:01.994Z,21.00
2022-09-07T09:20:38.297Z,21.10
2022-09-07T09:23:11.154Z,21.10
2022-09-07T09:25:40.056Z,21.10
2022-09-07T09:28:10.193Z,21.10
2022-09-07T09:30:37.756Z,21.20
2022-09-07T09:33:20.553Z,21.20
2022-09-07T09:35:52.298Z,21.20
2022-09-07T09:38:39.961Z,21.20
2022-09-07T09:41:09.029Z,21.20
2022-09-07T09:43:42.294Z,21.30
2022-09-07T09:46:21.883Z,21.30
2022-09-07T09:48:53.894Z,21.40
2022-09-07T09:54:28.002Z,21.50
2022-09-07T09:56:56.076Z,21.50
2022-09-07T10:05:26.223Z,21.60
2022-09-07T10:07:54.047Z,21.70
2022-09-07T10:10:21.672Z,21.70
2022-09-07T10:12:54.389Z,21.70
2022-09-07T10:15:30.399Z,21.80
2022-09-07T10:17:58.500Z,21.80
2022-09-07T10:20:36.731Z,21.80
2022-09-07T10:23:05.116Z,21.90
2022-09-07T10:25:44.555Z,21.90
2022-09-07T10:28:12.933Z,22.00
2022-09-07T10:30:40.248Z,22.10
2022-09-07T10:33:18.780Z,22.10
2022-09-07T10:35:48.918Z,22.20
2022-09-07T10:38:18.040Z,22.30
2022-09-07T10:40:53.080Z,22.40
2022-09-07T10:43:38.830Z,22.40
2022-09-07T10:46:09.615Z,22.50
2022-09-07T10:48:54.321Z,22.60
2022-09-07T10:51:27.453Z,22.60
2022-09-07T10:56:55.890Z,22.70
2022-09-07T11:02:35.190Z,22.80
2022-09-07T11:05:05.843Z,22.90
2022-09-07T11:07:47.450Z,23.00
2022-09-07T11:10:36.697Z,23.00
2022-09-07T11:13:05.653Z,23.10
2022-09-07T11:15:41.688Z,23.20
2022-09-07T11:18:14.997Z,23.20
2022-09-07T11:20:42.305Z,23.20
2022-09-07T11:23:16.111Z,23.30
2022-09-07T11:25:58.857Z,23.30
2022-09-07T11:28:43.389Z,23.30
2022-09-07T11:31:18.920Z,23.40
2022-09-07T11:34:27.558Z,23.40
2022-09-07T11:37:08.026Z,23.50
2022-09-07T11:39:40.375Z,23.60
2022-09-07T11:45:02.997Z,23.80
2022-09-07T11:47:56.951Z,24.00
2022-09-07T11:50:24.553Z,24.10
2022-09-07T11:52:57.763Z,24.10
2022-09-07T11:55:27.603Z,24.20
2022-09-07T11:58:16.394Z,24.20
2022-09-07T12:01:02.466Z,24.20
2022-09-07T12:03:29.925Z,24.10
2022-09-07T12:06:09.671Z,24.10
2022-09-07T12:08:55.801Z,24.10
2022-09-07T12:11:41.192Z,24.10
2022-09-07T12:14:27.341Z,24.20
2022-09-07T12:17:12.781Z,24.20
2022-09-07T12:19:40.099Z,24.40
2022-09-07T12:22:19.393Z,24.40
2022-09-07T12:24:56.310Z,24.50
2022-09-07T12:27:23.715Z,24.50
2022-09-07T12:30:10.909Z,24.50
2022-09-07T12:32:55.606Z,24.50
2022-09-07T12:35:26.870Z,24.50
2022-09-07T12:37:55.117Z,24.50
2022-09-07T12:40:37.471Z,24.50
2022-09-07T12:43:16.924Z,24.40
2022-09-07T12:45:44.293Z,24.40
2022-09-07T12:48:23.082Z,24.30
2022-09-07T12:50:51.046Z,24.30
2022-09-07T12:53:21.285Z,24.20
2022-09-07T12:58:43.379Z,24.20
2022-09-07T13:01:16.984Z,24.20
2022-09-07T13:03:51.732Z,24.20
2022-09-07T13:07:02.918Z,24.30
2022-09-07T13:09:33.729Z,24.40
2022-09-07T13:12:04.932Z,24.40
2022-09-07T13:14:34.847Z,24.50
2022-09-07T13:17:20.806Z,24.60
2022-09-07T13:19:51.027Z,24.70
2022-09-07T13:22:30.353Z,24.70
2022-09-07T13:24:59.979Z,24.80
2022-09-07T13:27:39.883Z,24.90
2022-09-07T13:30:10.035Z,25.00
2022-09-07T13:35:26.542Z,25.10
2022-09-07T13:37:56.728Z,25.20
2022-09-07T13:40:26.641Z,25.20
2022-09-07T13:42:55.144Z,25.30
2022-09-07T13:45:45.801Z,25.40
2022-09-07T13:48:17.986Z,25.50
2022-09-07T13:51:03.831Z,25.50
2022-09-07T13:53:39.014Z,25.50
2022-09-07T13:56:25.809Z,25.50
2022-09-07T13:58:53.639Z,25.50
2022-09-07T14:01:22.733Z,25.50
2022-09-07T14:03:57.543Z,25.50
2022-09-07T14:06:30.154Z,25.50
2022-09-07T14:08:58.744Z,25.50
2022-09-07T14:11:30.449Z,25.50
2022-09-07T14:14:12.599Z,25.50
2022-09-07T14:16:41.509Z,25.50
2022-09-07T14:19:19.876Z,25.40
2022-09-07T14:21:57.156Z,25.40
2022-09-07T14:24:28.292Z,25.50
2022-09-07T14:26:55.670Z,25.50
2022-09-07T14:29:24.371Z,25.60
2022-09-07T14:31:51.915Z,25.60
2022-09-07T14:34:22.226Z,25.70
2022-09-07T14:36:57.208Z,25.90
2022-09-07T14:39:30.935Z,26.00
2022-09-07T14:41:59.052Z,26.20
2022-09-07T14:44:30.861Z,26.30
2022-09-07T14:46:59.934Z,26.40
2022-09-07T14:49:28.740Z,26.50
2022-09-07T14:51:56.325Z,26.70
2022-09-07T14:54:28.130Z,26.70
2022-09-07T14:57:18.457Z,26.80
2022-09-07T14:59:46.819Z,26.80
2022-09-07T15:02:29.217Z,26.90
2022-09-07T15:05:15.075Z,27.00
2022-09-07T15:07:46.068Z,27.10
2022-09-07T15:10:19.517Z,27.00
2022-09-07T15:12:48.024Z,27.00
2022-09-07T15:15:26.840Z,27.00
2022-09-07T15:17:55.595Z,26.90
2022-09-07T15:20:40.066Z,26.80
2022-09-07T15:23:14.884Z,26.80
2022-09-07T15:25:47.984Z,26.80
2022-09-07T15:34:20.485Z,26.50
2022-09-07T15:36:52.442Z,26.40
2022-09-07T15:39:21.417Z,26.40
2022-09-07T15:41:49.222Z,26.40
2022-09-07T15:44:28.053Z,26.30
2022-09-07T15:49:50.564Z,26.30
2022-09-07T15:52:18.945Z,26.30
2022-09-07T15:54:46.909Z,26.30
2022-09-07T16:00:01.866Z,26.20
2022-09-07T16:05:30.777Z,26.10
2022-09-07T16:10:53.341Z,26.10
2022-09-07T16:13:24.247Z,26.00
2022-09-07T16:15:51.947Z,26.00
2022-09-07T16:18:19.480Z,25.90
2022-09-07T16:20:47.293Z,25.90
2022-09-07T16:23:16.405Z,25.80
2022-09-07T16:25:55.601Z,25.70
2022-09-07T16:28:22.878Z,25.60
2022-09-07T16:30:50.395Z,25.50
2022-09-07T16:33:17.735Z,25.30
2022-09-07T16:35:56.179Z,25.30
2022-09-07T16:41:20.075Z,25.00
2022-09-07T16:43:47.637Z,24.90
2022-09-07T16:46:17.245Z,24.80
2022-09-07T16:48:44.632Z,24.70
2022-09-07T16:51:12.972Z,24.60
2022-09-07T16:53:40.689Z,24.50
2022-09-07T16:56:09.643Z,24.40
2022-09-07T16:58:38.531Z,24.40
2022-09-07T17:01:07.148Z,24.30
2022-09-07T17:03:34.895Z,24.20
2022-09-07T17:06:03.108Z,24.10
2022-09-07T17:08:30.528Z,24.10
2022-09-07T17:11:04.741Z,24.00
2022-09-07T17:13:33.463Z,23.90
2022-09-07T17:16:04.489Z,23.90
2022-09-07T17:21:19.737Z,23.80
2022-09-07T17:23:54.337Z,23.70
2022-09-07T17:26:23.696Z,23.60
2022-09-07T17:28:54.473Z,23.60
2022-09-07T17:34:10.727Z,23.50
2022-09-07T17:36:38.214Z,23.40
2022-09-07T17:39:14.866Z,23.40
2022-09-07T17:41:44.862Z,23.30
2022-09-07T17:44:12.848Z,23.20
2022-09-07T17:46:40.928Z,23.20
2022-09-07T17:49:10.520Z,23.10
2022-09-07T17:51:38.815Z,23.10
2022-09-07T17:54:11.722Z,23.00
2022-09-07T17:56:40.421Z,23.00
2022-09-07T18:02:02.199Z,22.90
2022-09-07T18:04:30.095Z,22.80
2022-09-07T18:06:58.550Z,22.70
2022-09-07T18:09:27.348Z,22.70
2022-09-07T18:11:54.692Z,22.60
2022-09-07T18:14:22.087Z,22.60
2022-09-07T18:16:50.044Z,22.50
2022-09-07T18:19:18.227Z,22.50
2022-09-07T18:21:46.420Z,22.40
2022-09-07T18:24:18.208Z,22.40
2022-09-07T18:26:50.165Z,22.30
2022-09-07T18:29:28.821Z,22.20
2022-09-07T18:32:03.635Z,22.20
2022-09-07T18:34:32.117Z,22.20
2022-09-07T18:37:00.120Z,22.10
2022-09-07T18:39:27.880Z,22.10
2022-09-07T18:41:56.960Z,22.10
2022-09-07T18:47:27.208Z,22.00
2022-09-07T18:49:55.688Z,22.00
2022-09-07T18:55:15.331Z,21.90
2022-09-07T18:57:43.480Z,21.90
2022-09-07T19:00:11.750Z,21.90
2022-09-07T19:02:39.101Z,21.80
2022-09-07T19:07:54.168Z,21.70
2022-09-07T19:10:21.379Z,21.70
2022-09-07T19:12:48.759Z,21.70
2022-09-07T19:15:16.493Z,21.60
2022-09-07T19:17:43.956Z,21.60
2022-09-07T19:20:11.527Z,21.60
2022-09-07T19:22:39.241Z,21.50
2022-09-07T19:25:06.814Z,21.50
2022-09-07T19:27:34.135Z,21.50
2022-09-07T19:30:01.604Z,21.50
2022-09-07T19:32:29.097Z,21.40
2022-09-07T19:34:57.159Z,21.30
2022-09-07T19:37:25.900Z,21.30
2022-09-07T19:39:56.449Z,21.30
2022-09-07T19:42:25.718Z,21.30
2022-09-07T19:44:53.146Z,21.30
2022-09-07T19:47:21.042Z,21.20
2022-09-07T19:49:48.520Z,21.20
2022-09-07T19:52:15.951Z,21.20
2022-09-07T19:54:44.061Z,21.20
2022-09-07T19:57:11.431Z,21.20
2022-09-07T19:59:38.705Z,21.20
2022-09-07T20:02:07.401Z,21.10
2022-09-07T20:04:36.003Z,21.10
2022-09-07T20:07:04.151Z,21.10
2022-09-07T20:09:31.412Z,21.20
2022-09-07T20:11:58.822Z,21.10
2022-09-07T20:14:26.254Z,21.10
2022-09-07T20:16:53.610Z,21.10
2022-09-07T20:19:20.913Z,21.10
2022-09-07T20:21:49.169Z,21.10
2022-09-07T20:24:22.337Z,21.10
2022-09-07T20:26:49.791Z,21.10
2022-09-07T20:29:27.260Z,21.10
2022-09-07T20:31:59.477Z,21.10
2022-09-07T20:34:27.366Z,21.10
2022-09-07T20:36:55.059Z,21.10
2022-09-07T20:39:22.656Z,21.10
2022-09-07T20:41:49.943Z,21.10
2022-09-07T20:44:17.312Z,21.10
2022-09-07T20:46:44.868Z,21.10
2022-09-07T20:49:12.221Z,21.10
2022-09-07T20:51:40.199Z,21.10
2022-09-07T20:54:07.563Z,21.10
2022-09-07T20:56:35.319Z,21.10
2022-09-07T20:59:03.161Z,21.00
2022-09-07T21:01:31.985Z,21.00
2022-09-07T21:04:00.808Z,21.00
2022-09-07T21:06:29.002Z,21.00
2022-09-07T21:08:57.428Z,21.00
2022-09-07T21:11:29.330Z,21.00
2022-09-07T21:14:00.523Z,21.00
2022-09-07T21:16:28.588Z,21.00
2022-09-07T21:18:56.915Z,21.00
2022-09-07T21:21:25.006Z,21.00
2022-09-07T21:23:56.131Z,21.00
2022-09-07T21:26:24.308Z,21.00
2022-09-07T21:28:55.670Z,21.00
2022-09-07T21:31:23.663Z,21.00
2022-09-07T21:33:54.206Z,21.00
2022-09-07T21:36:21.806Z,21.00
2022-09-07T21:38:49.050Z,21.00
2022-09-07T21:41:17.651Z,21.00
2022-09-07T21:43:45.324Z,21.00
2022-09-07T21:46:14.086Z,21.00
2022-09-07T21:48:41.625Z,21.00
2022-09-07T21:51:09.050Z,21.00
2022-09-07T21:53:36.325Z,21.00
2022-09-07T21:56:05.438Z,21.00
2022-09-07T21:58:33.404Z,21.00
2022-09-07T22:01:09.005Z,20.90
2022-09-07T22:03:36.333Z,20.90
2022-09-07T22:06:03.804Z,20.90
2022-09-07T22:08:31.218Z,20.90
2022-09-07T22:11:05.701Z,20.90
2022-09-07T22:13:33.453Z,20.90
2022-09-07T22:16:01.386Z,20.80
2022-09-07T22:18:30.597Z,20.80
2022-09-07T22:21:05.134Z,20.80
2022-09-07T22:23:33.314Z,20.80
2022-09-07T22:26:00.932Z,20.80
2022-09-07T22:28:32.014Z,20.80
2022-09-07T22:31:09.646Z,20.70
2022-09-07T22:33:37.075Z,20.70
2022-09-07T22:36:15.362Z,20.70
2022-09-07T22:38:43.353Z,20.70
2022-09-07T22:41:11.885Z,20.70
2022-09-07T22:43:39.385Z,20.60
2022-09-07T22:46:07.527Z,20.60
2022-09-07T22:48:35.244Z,20.60
2022-09-07T22:51:03.046Z,20.60
2022-09-07T22:53:31.518Z,20.60
2022-09-07T22:55:59.563Z,20.50
2022-09-07T22:58:29.275Z,20.50
2022-09-07T23:00:59.787Z,20.50
2022-09-07T23:03:30.899Z,20.50
2022-09-07T23:05:58.640Z,20.50
2022-09-07T23:08:26.260Z,20.50
2022-09-07T23:10:53.614Z,20.40
2022-09-07T23:13:21.299Z,20.40
2022-09-07T23:15:49.026Z,20.40
2022-09-07T23:18:17.445Z,20.40
2022-09-07T23:20:45.034Z,20.40
2022-09-07T23:23:13.564Z,20.40
2022-09-07T23:25:41.978Z,20.40
2022-09-07T23:28:12.526Z,20.40
2022-09-07T23:30:42.923Z,20.40
2022-09-07T23:33:10.179Z,20.40
2022-09-07T23:35:37.954Z,20.40
2022-09-07T23:38:05.553Z,20.30
2022-09-07T23:40:34.546Z,20.30
2022-09-07T23:43:01.830Z,20.30
2022-09-07T23:45:29.437Z,20.30
2022-09-07T23:47:56.729Z,20.30
2022-09-07T23:50:24.088Z,20.30
2022-09-07T23:52:51.515Z,20.30
2022-09-07T23:55:19.014Z,20.30
2022-09-07T23:57:46.319Z,20.20
